Time;durP1;ratioP1;P1;durP2;ratioP2;P2;SDS_P1;SDS_P2;PMS_P1;PMS_P2;Temp;Humidity;BMP_temperature;BMP_pressure;BME280_temperature;BME280_humidity;BME280_pressure;Samples;Min_cycle;Max_cycle;Signal;HPM_P1;HPM_P2
2023/03/20 00:02:05;;;;;;;;;;;;;;;7.72;96.64;101885.38;4952985;28;4844;-79
2023/03/20 00:04:30;;;;;;;;;;;;;;;7.68;96.09;101883.88;4957045;28;1960;-80
2023/03/20 00:06:56;;;;;;;;;;;;;;;7.69;96.59;101876.06;4956812;28;1448;-79
2023/03/20 00:09:21;;;;;;;;;;;;;;;7.69;96.75;101886.38;4948731;28;1448;-79
2023/03/20 00:11:48;;;;;;;;;;;;;;;7.70;96.33;101882.06;4950479;28;1454;-79
2023/03/20 00:14:14;;;;;;;;;;;;;;;7.68;96.15;101878.69;4940040;28;1496;-79
2023/03/20 00:16:44;;;;;;;;;;;;;;;7.70;96.16;101882.06;4931628;28;1241;-79
2023/03/20 00:19:13;;;;;;;;;;;;;;;7.71;96.48;101878.56;4952936;28;1578;-79
2023/03/20 00:21:38;;;;;;;;;;;;;;;7.67;96.37;101877.03;4948169;28;1090;-79
2023/03/20 00:24:03;;;;;;;;;;;;;;;7.68;96.51;101881.28;4946523;28;1956;-79
2023/03/20 00:26:33;;;;;;;;;;;;;;;7.68;96.17;101873.53;4945794;28;1180;-79
2023/03/20 00:28:59;;;;;;;;;;;;;;;7.67;96.53;101871.88;4933406;28;1167;-79
2023/03/20 00:31:38;;;;;;;;;;;;;;;7.64;96.13;101877.22;4933210;29;1100;-78
2023/03/20 00:34:13;;;;;;;;;;;;;;;7.63;96.36;101867.81;4948574;28;1116;-79
2023/03/20 00:36:39;;;;;;;;;;;;;;;7.59;96.16;101867.13;4944009;28;1089;-79
2023/03/20 00:39:05;;;;;;;;;;;;;;;7.60;96.51;101860.22;4936482;29;1265;-79
2023/03/20 00:41:42;;;;;;;;;;;;;;;7.55;96.67;101852.69;4943858;28;1160;-79
2023/03/20 00:44:36;;;;;;;;;;;;;;;7.56;96.40;101853.53;4946736;28;1906;-80
2023/03/20 00:47:03;;;;;;;;;;;;;;;7.59;96.06;101850.81;4941596;28;2330;-79
2023/03/20 00:49:31;;;;;;;;;;;;;;;7.61;96.94;101846.38;4938391;28;1136;-79
2023/03/20 00:51:57;;;;;;;;;;;;;;;7.58;96.18;101843.97;4957408;28;1258;-79
2023/03/20 00:54:22;;;;;;;;;;;;;;;7.59;96.27;101848.22;4952024;28;1460;-79
2023/03/20 00:56:56;;;;;;;;;;;;;;;7.58;96.29;101851.72;4932058;28;1302;-79
2023/03/20 00:59:24;;;;;;;;;;;;;;;7.60;96.46;101855.03;4956686;28;1299;-79
2023/03/20 01:01:49;;;;;;;;;;;;;;;7.58;96.81;101862.03;4945345;28;4829;-79
2023/03/20 01:04:16;;;;;;;;;;;;;;;7.57;96.65;101873.25;4945416;28;3000;-79
2023/03/20 01:06:42;;;;;;;;;;;;;;;7.53;96.18;101889.84;4949460;28;1676;-79
2023/03/20 01:09:08;;;;;;;;;;;;;;;7.53;96.90;101895.00;4939189;28;1496;-79
2023/03/20 01:11:34;;;;;;;;;;;;;;;7.52;95.84;101888.19;4954093;28;1469;-79
2023/03/20 01:13:59;;;;;;;;;;;;;;;7.56;96.37;101887.09;4948617;28;1292;-79
2023/03/20 01:16:25;;;;;;;;;;;;;;;7.54;96.70;101894.09;4955696;28;1483;-79
2023/03/20 01:18:51;;;;;;;;;;;;;;;7.55;96.90;101893.16;4957349;28;1338;-79
2023/03/20 01:21:17;;;;;;;;;;;;;;;7.53;96.27;101895.84;4952385;28;1326;-79
2023/03/20 01:23:42;;;;;;;;;;;;;;;7.52;95.93;101899.34;4932865;28;2053;-79
2023/03/20 01:26:20;;;;;;;;;;;;;;;7.48;96.18;101902.16;4954557;28;1323;-79
2023/03/20 01:28:45;;;;;;;;;;;;;;;7.49;96.19;101906.41;4949656;28;1399;-79
2023/03/20 01:31:11;;;;;;;;;;;;;;;7.50;95.64;101906.31;4934369;28;1469;-79
2023/03/20 01:33:37;;;;;;;;;;;;;;;7.51;95.63;101897.66;4946972;28;1158;-79
2023/03/20 01:36:02;;;;;;;;;;;;;;;7.49;95.90;101901.22;4951048;28;1426;-79
2023/03/20 01:38:27;;;;;;;;;;;;;;;7.48;95.37;101894.41;4958537;28;1399;-79
2023/03/20 01:40:58;;;;;;;;;;;;;;;7.47;95.84;101890.16;4931995;28;1259;-79
2023/03/20 01:43:24;;;;;;;;;;;;;;;7.47;95.08;101896.16;4938605;28;2275;-79
2023/03/20 01:45:52;;;;;;;;;;;;;;;7.48;95.83;101892.66;4952389;28;1433;-80
2023/03/20 01:48:18;;;;;;;;;;;;;;;7.44;95.89;101886.81;4959196;28;1444;-79
2023/03/20 01:50:43;;;;;;;;;;;;;;;7.43;95.12;101885.16;4953555;28;1275;-78
2023/03/20 01:53:23;;;;;;;;;;;;;;;7.43;95.16;101889.47;4944029;28;1300;-78
2023/03/20 01:55:50;;;;;;;;;;;;;;;7.40;nan;101885.31;4963156;28;1399;-78
2023/03/20 01:58:18;;;;;;;;;;;;;;;7.42;95.56;101888.66;4962295;28;1290;-79
2023/03/20 02:00:44;;;;;;;;;;;;;;;7.39;95.13;101888.78;4943296;28;5009;-78
2023/03/20 02:03:10;;;;;;;;;;;;;;;7.38;95.62;101892.28;4954577;28;1914;-78
2023/03/20 02:05:36;;;;;;;;;;;;;;;7.37;95.67;101893.19;4956952;28;1155;-78
2023/03/20 02:08:09;;;;;;;;;;;;;;;7.34;95.51;101885.63;4936123;28;2006;-79
2023/03/20 02:10:34;;;;;;;;;;;;;;;7.35;94.64;101884.72;4937173;28;1661;-79
2023/03/20 02:13:00;;;;;;;;;;;;;;;7.32;94.77;101877.13;4958824;28;1581;-78
2023/03/20 02:15:26;;;;;;;;;;;;;;;7.26;95.25;101872.28;4957586;28;1417;-78
2023/03/20 02:17:52;;;;;;;;;;;;;;;7.24;95.52;101879.25;4958023;28;1248;-79
2023/03/20 02:20:26;;;;;;;;;;;;;;;7.19;94.55;101883.81;4952224;28;1237;-78
2023/03/20 02:23:10;;;;;;;;;;;;;;;7.14;95.05;101889.22;4951379;28;1899;-78
2023/03/20 02:26:03;;;;;;;;;;;;;;;7.05;94.50;101879.34;4954505;28;1266;-78
2023/03/20 02:28:48;;;;;;;;;;;;;;;7.00;95.23;101890.81;4950855;28;939;-78
2023/03/20 02:31:27;;;;;;;;;;;;;;;6.96;95.51;101895.28;4949940;28;1415;-78
2023/03/20 02:34:11;;;;;;;;;;;;;;;6.92;94.85;101909.22;4952624;28;1325;-78
2023/03/20 02:36:55;;;;;;;;;;;;;;;6.87;95.14;101888.81;4953040;28;1176;-78
2023/03/20 02:39:20;;;;;;;;;;;;;;;6.86;95.38;101884.56;4939048;28;2376;-78
2023/03/20 02:41:51;;;;;;;;;;;;;;;6.82;94.77;101883.03;4953698;28;1145;-78
2023/03/20 02:44:31;;;;;;;;;;;;;;;6.75;94.34;101870.53;4937674;28;1899;-78
2023/03/20 02:46:56;;;;;;;;;;;;;;;6.76;95.42;101861.88;4945246;28;1422;-79
2023/03/20 02:49:40;;;;;;;;;;;;;;;6.77;95.17;101859.25;4953610;28;1221;-78
2023/03/20 02:52:14;;;;;;;;;;;;;;;6.76;94.92;101870.47;4953718;28;1176;-78
2023/03/20 02:54:42;;;;;;;;;;;;;;;6.76;94.09;101862.72;4942627;28;1385;-78
2023/03/20 02:57:14;;;;;;;;;;;;;;;6.79;95.15;101872.91;4951578;28;1426;-78
2023/03/20 02:59:42;;;;;;;;;;;;;;;6.76;95.29;101867.88;4958779;28;1323;-78
2023/03/20 03:02:11;;;;;;;;;;;;;;;6.70;94.11;101868.19;4936672;28;4823;-79
2023/03/20 03:04:43;;;;;;;;;;;;;;;6.64;94.15;101871.06;4939579;28;1930;-78
2023/03/20 03:07:09;;;;;;;;;;;;;;;6.65;94.24;101867.56;4941331;28;1583;-79
2023/03/20 03:09:41;;;;;;;;;;;;;;;6.64;94.38;101868.47;4943291;28;1427;-78
2023/03/20 03:12:11;;;;;;;;;;;;;;;6.63;94.46;101864.25;4935870;28;1489;-78
2023/03/20 03:14:39;;;;;;;;;;;;;;;6.60;94.42;101856.66;4939901;28;1549;-78
2023/03/20 03:17:06;;;;;;;;;;;;;;;6.58;94.00;101848.16;4957606;28;1091;-79
2023/03/20 03:19:33;;;;;;;;;;;;;;;6.55;93.96;101833.69;4936321;28;1490;-78
2023/03/20 03:21:59;;;;;;;;;;;;;;;6.55;94.42;101809.66;4952493;28;1973;-78
2023/03/20 03:24:26;;;;;;;;;;;;;;;6.54;94.06;101815.72;4936614;28;1974;-78
2023/03/20 03:26:52;;;;;;;;;;;;;;;6.48;93.53;101801.41;4938576;28;1404;-78
2023/03/20 03:29:18;;;;;;;;;;;;;;;6.52;94.37;101817.53;4956349;28;1526;-78
2023/03/20 03:31:44;;;;;;;;;;;;;;;6.50;94.36;101816.78;4939373;28;1306;-78
2023/03/20 03:34:14;;;;;;;;;;;;;;;6.52;94.54;101827.84;4953016;28;1999;-78
2023/03/20 03:36:40;;;;;;;;;;;;;;;6.42;93.97;101826.59;4942033;28;1381;-78
2023/03/20 03:39:32;;;;;;;;;;;;;;;6.40;94.50;101826.69;4961635;28;1493;-78
2023/03/20 03:41:57;;;;;;;;;;;;;;;6.38;94.59;101824.19;4956133;28;1441;-79
2023/03/20 03:44:27;;;;;;;;;;;;;;;6.39;94.14;101818.13;4949266;28;1958;-78
2023/03/20 03:46:57;;;;;;;;;;;;;;;6.37;94.13;101813.97;4948774;28;1542;-78
2023/03/20 03:49:25;;;;;;;;;;;;;;;6.35;94.76;101821.75;4954629;28;1290;-79
2023/03/20 03:51:54;;;;;;;;;;;;;;;6.34;93.80;101820.09;4956230;28;1543;-79
2023/03/20 03:54:21;;;;;;;;;;;;;;;6.34;94.25;101825.25;4953451;28;1397;-78
2023/03/20 03:56:47;;;;;;;;;;;;;;;6.36;94.76;101813.09;4935210;28;1332;-78
2023/03/20 03:59:25;;;;;;;;;;;;;;;6.33;94.41;101818.41;4949682;28;1433;-79
2023/03/20 04:01:51;;;;;;;;;;;;;;;6.32;93.68;101816.75;4956726;28;4735;-78
2023/03/20 04:04:17;;;;;;;;;;;;;;;6.30;94.23;101813.41;4953064;28;2118;-78
2023/03/20 04:06:42;;;;;;;;;;;;;;;6.29;94.13;101806.59;4953859;28;1204;-78
2023/03/20 04:09:08;;;;;;;;;;;;;;;6.27;93.54;101813.56;4959374;28;1246;-78
2023/03/20 04:11:34;;;;;;;;;;;;;;;6.23;94.59;101814.59;4952987;28;1516;-78
2023/03/20 04:14:00;;;;;;;;;;;;;;;6.21;94.41;101808.72;4952734;28;1377;-78
2023/03/20 04:16:25;;;;;;;;;;;;;;;6.17;93.99;101791.72;4951818;28;1508;-78
2023/03/20 04:18:51;;;;;;;;;;;;;;;6.11;93.59;101786.84;4946374;28;1082;-78
2023/03/20 04:21:17;;;;;;;;;;;;;;;6.07;94.26;101790.47;4946894;28;1152;-78
2023/03/20 04:23:43;;;;;;;;;;;;;;;6.05;94.25;101794.88;4933353;28;1931;-78
2023/03/20 04:26:08;;;;;;;;;;;;;;;6.00;94.03;101799.41;4950406;28;1115;-78
2023/03/20 04:28:33;;;;;;;;;;;;;;;5.96;94.48;101792.72;4944216;28;1565;-78
2023/03/20 04:30:59;;;;;;;;;;;;;;;5.95;94.52;101786.75;4931643;28;2506;-78
2023/03/20 04:33:25;;;;;;;;;;;;;;;5.93;93.79;101782.59;4947285;28;1128;-78
2023/03/20 04:35:50;;;;;;;;;;;;;;;5.94;94.46;101779.09;4944621;28;1121;-78
2023/03/20 04:38:16;;;;;;;;;;;;;;;5.88;94.54;101779.34;4945037;28;1121;-78
2023/03/20 04:40:42;;;;;;;;;;;;;;;5.84;93.82;101774.34;4930234;28;1169;-79
2023/03/20 04:43:07;;;;;;;;;;;;;;;5.85;94.10;101781.19;4930456;28;1969;-78
2023/03/20 04:45:32;;;;;;;;;;;;;;;5.85;93.81;101775.19;4944424;28;1157;-78
2023/03/20 04:47:58;;;;;;;;;;;;;;;5.84;93.82;101774.34;4952178;28;1425;-78
2023/03/20 04:50:23;;;;;;;;;;;;;;;5.85;93.95;101783.75;4951186;28;1326;-78
2023/03/20 04:52:48;;;;;;;;;;;;;;;5.85;93.82;101790.63;4948624;28;1515;-78
2023/03/20 04:55:13;;;;;;;;;;;;;;;5.88;94.41;101789.66;4953946;28;1272;-78
2023/03/20 04:57:39;;;;;;;;;;;;;;;5.84;94.20;101796.66;4958562;28;1401;-78
2023/03/20 05:00:05;;;;;;;;;;;;;;;5.81;94.43;101795.09;4938494;28;4632;-78
2023/03/20 05:02:30;;;;;;;;;;;;;;;5.83;94.46;101795.84;4935556;28;1289;-78
2023/03/20 05:04:55;;;;;;;;;;;;;;;5.82;94.69;101791.59;4947903;28;1902;-78
2023/03/20 05:07:20;;;;;;;;;;;;;;;5.79;94.24;101794.34;4951723;28;1248;-79
2023/03/20 05:09:46;;;;;;;;;;;;;;;5.90;94.06;101782.69;4957783;28;1338;-78
2023/03/20 05:12:11;;;;;;;;;;;;;;;5.77;94.36;101783.25;4953300;28;1568;-78
2023/03/20 05:14:37;;;;;;;;;;;;;;;5.78;94.41;101786.66;4951698;28;1663;-78
2023/03/20 05:17:02;;;;;;;;;;;;;;;5.77;93.86;101783.25;4958634;28;1321;-78
2023/03/20 05:19:27;;;;;;;;;;;;;;;5.77;93.93;101783.25;4956507;28;1295;-78
2023/03/20 05:21:52;;;;;;;;;;;;;;;5.80;94.41;101777.16;4938899;28;2083;-79
2023/03/20 05:24:18;;;;;;;;;;;;;;;5.76;93.86;101776.44;4955595;28;1899;-78
2023/03/20 05:26:43;;;;;;;;;;;;;;;5.74;94.36;101767.97;4960936;28;2371;-78
2023/03/20 05:29:08;;;;;;;;;;;;;;;5.73;93.93;101771.41;4957872;28;1710;-77
2023/03/20 05:31:34;;;;;;;;;;;;;;;5.72;94.23;101772.34;4958868;28;1240;-78
2023/03/20 05:33:59;;;;;;;;;;;;;;;5.72;93.85;101764.59;4951647;28;1569;-78
2023/03/20 05:36:27;;;;;;;;;;;;;;;5.71;93.45;101768.09;4952321;28;1326;-78
2023/03/20 05:38:53;;;;;;;;;;;;;;;5.73;93.66;101776.56;4936933;28;1468;-77
2023/03/20 05:41:18;;;;;;;;;;;;;;;5.77;93.68;101778.09;4955207;28;1335;-78
2023/03/20 05:43:43;;;;;;;;;;;;;;;5.74;93.62;101793.72;4936296;28;2418;-78
2023/03/20 05:46:09;;;;;;;;;;;;;;;5.75;93.72;101795.38;4942992;28;1402;-78
2023/03/20 05:48:34;;;;;;;;;;;;;;;5.75;93.99;101795.38;4949012;28;1240;-78
2023/03/20 05:50:59;;;;;;;;;;;;;;;5.75;93.79;101790.22;4939674;28;1426;-78
2023/03/20 05:53:25;;;;;;;;;;;;;;;5.76;94.07;101786.75;4949971;28;1462;-78
2023/03/20 05:55:50;;;;;;;;;;;;;;;5.76;93.66;101788.47;4955852;28;1346;-78
2023/03/20 05:58:15;;;;;;;;;;;;;;;5.76;94.33;101791.88;4956378;28;1440;-78
2023/03/20 06:00:40;;;;;;;;;;;;;;;5.72;93.80;101787.78;4958754;28;4976;-78
2023/03/20 06:03:06;;;;;;;;;;;;;;;5.75;93.69;101797.94;4954298;28;1993;-78
2023/03/20 06:05:32;;;;;;;;;;;;;;;5.75;93.95;101804.84;4956904;28;1281;-78
2023/03/20 06:07:57;;;;;;;;;;;;;;;5.74;94.21;101809.16;4953057;28;1338;-79
2023/03/20 06:10:22;;;;;;;;;;;;;;;5.73;94.14;101812.59;4948088;28;1436;-78
2023/03/20 06:12:47;;;;;;;;;;;;;;;5.74;93.89;101809.16;4951670;28;1628;-78
2023/03/20 06:15:13;;;;;;;;;;;;;;;5.78;94.71;101820.94;4946174;28;1471;-78
2023/03/20 06:17:38;;;;;;;;;;;;;;;5.81;94.67;101820.00;4948993;28;1510;-78
2023/03/20 06:20:04;;;;;;;;;;;;;;;5.77;94.48;101832.16;4931579;28;1258;-78
2023/03/20 06:22:52;;;;;;;;;;;;;;;5.80;94.19;101819.16;4938226;28;1259;-78
2023/03/20 06:25:18;;;;;;;;;;;;;;;5.82;93.95;101842.25;4928280;29;1899;-78
2023/03/20 06:27:45;;;;;;;;;;;;;;;5.80;94.00;101824.31;4942048;28;1783;-78
2023/03/20 06:30:10;;;;;;;;;;;;;;;5.81;94.45;101822.56;4951243;28;1099;-78
2023/03/20 06:32:35;;;;;;;;;;;;;;;5.87;93.92;101822.28;4934475;28;1300;-78
2023/03/20 06:35:00;;;;;;;;;;;;;;;5.86;94.25;101821.47;4947928;28;1266;-78
2023/03/20 06:37:26;;;;;;;;;;;;;;;5.81;93.84;101815.69;4947972;28;1122;-78
2023/03/20 06:39:51;;;;;;;;;;;;;;;5.80;94.36;101824.31;4951540;28;985;-78
2023/03/20 06:42:16;;;;;;;;;;;;;;;5.85;94.56;101824.94;4941012;29;1435;-78
2023/03/20 06:44:42;;;;;;;;;;;;;;;5.81;94.39;101820.81;4950352;28;1894;-78
2023/03/20 06:47:07;;;;;;;;;;;;;;;5.83;94.58;101824.16;4956495;28;1300;-78
2023/03/20 06:49:32;;;;;;;;;;;;;;;5.88;93.80;101820.53;4943485;28;1285;-78
2023/03/20 06:51:58;;;;;;;;;;;;;;;5.83;93.93;101833.63;4956655;28;1509;-79
2023/03/20 06:54:23;;;;;;;;;;;;;;;5.83;94.19;101831.88;4935224;28;1319;-78
2023/03/20 06:56:48;;;;;;;;;;;;;;;5.82;94.10;101842.25;4954204;28;1440;-77
2023/03/20 06:59:13;;;;;;;;;;;;;;;5.82;94.26;101843.09;4954984;28;1481;-77
2023/03/20 07:01:39;;;;;;;;;;;;;;;5.82;94.63;101853.38;4953071;28;4912;-77
2023/03/20 07:04:04;;;;;;;;;;;;;;;5.84;94.49;101851.56;4951150;28;1951;-78
2023/03/20 07:06:30;;;;;;;;;;;;;;;5.87;94.38;101855.75;4955537;28;1190;-78
2023/03/20 07:08:55;;;;;;;;;;;;;;;5.86;94.63;101852.34;4946768;28;1179;-78
2023/03/20 07:11:21;;;;;;;;;;;;;;;5.89;94.77;101853.09;4945634;28;1557;-78
2023/03/20 07:13:46;;;;;;;;;;;;;;;5.97;93.88;101863.94;4933307;28;1936;-78
2023/03/20 07:16:11;;;;;;;;;;;;;;;5.89;94.24;101858.25;4954552;28;1420;-77
2023/03/20 07:18:36;;;;;;;;;;;;;;;5.91;94.16;101841.00;4951994;28;1156;-78
2023/03/20 07:21:04;;;;;;;;;;;;;;;5.88;94.64;101852.28;4953736;28;2015;-78
2023/03/20 07:23:29;;;;;;;;;;;;;;;5.91;94.52;101859.00;4935595;28;1906;-77
2023/03/20 07:25:55;;;;;;;;;;;;;;;5.93;93.99;101854.69;4941284;28;1414;-77
2023/03/20 07:28:20;;;;;;;;;;;;;;;5.91;93.94;101861.59;4953655;28;1423;-78
2023/03/20 07:30:45;;;;;;;;;;;;;;;5.95;94.23;101850.28;4954722;28;1174;-78
2023/03/20 07:33:10;;;;;;;;;;;;;;;5.96;94.18;101859.66;4938373;28;1581;-77
2023/03/20 07:35:36;;;;;;;;;;;;;;;5.94;93.98;101846.03;4959819;28;1273;-77
2023/03/20 07:38:01;;;;;;;;;;;;;;;5.95;94.83;101858.00;4955837;28;1400;-77
2023/03/20 07:40:26;;;;;;;;;;;;;;;5.98;94.86;101852.72;4939146;28;1505;-78
2023/03/20 07:42:51;;;;;;;;;;;;;;;6.00;94.57;101853.47;4933731;28;1440;-78
2023/03/20 07:45:17;;;;;;;;;;;;;;;6.02;94.81;101849.09;4940773;28;1907;-78
2023/03/20 07:47:43;;;;;;;;;;;;;;;6.09;94.59;101855.66;4953370;28;1566;-78
2023/03/20 07:50:08;;;;;;;;;;;;;;;6.11;93.96;101848.69;4958956;28;1662;-78
2023/03/20 07:52:33;;;;;;;;;;;;;;;6.11;94.27;101858.97;4954349;28;1404;-78
2023/03/20 07:54:59;;;;;;;;;;;;;;;6.15;93.74;101850.22;4934742;28;1704;-77
2023/03/20 07:57:27;;;;;;;;;;;;;;;6.14;93.47;101843.41;4944404;28;1350;-77
2023/03/20 07:59:52;;;;;;;;;;;;;;;6.18;93.42;101852.63;4931059;28;1545;-77
2023/03/20 08:02:18;;;;;;;;;;;;;;;6.19;93.72;101849.13;4937531;28;5188;-77
2023/03/20 08:04:45;;;;;;;;;;;;;;;6.18;93.82;101855.19;4953382;28;1883;-77
2023/03/20 08:07:12;;;;;;;;;;;;;;;6.24;93.39;101857.50;4950197;28;1431;-77
2023/03/20 08:09:38;;;;;;;;;;;;;;;6.23;93.79;101848.09;4957839;28;1695;-78
2023/03/20 08:12:04;;;;;;;;;;;;;;;6.24;93.15;101848.94;4952713;28;1363;-77
2023/03/20 08:14:32;;;;;;;;;;;;;;;6.26;93.37;101853.13;4958296;28;1573;-77
2023/03/20 08:16:57;;;;;;;;;;;;;;;6.28;93.83;101856.44;4952731;28;2091;-78
2023/03/20 08:19:25;;;;;;;;;;;;;;;6.50;92.26;101858.00;4948106;28;1145;-77
2023/03/20 08:22:06;;;;;;;;;;;;;;;6.34;92.52;101855.31;4950652;28;1559;-78
2023/03/20 08:24:31;;;;;;;;;;;;;;;6.32;92.53;101842.53;4947666;28;1902;-78
2023/03/20 08:26:56;;;;;;;;;;;;;;;6.37;93.04;101850.88;4949830;28;1033;-78
2023/03/20 08:29:21;;;;;;;;;;;;;;;6.45;92.23;101853.06;4944214;28;1236;-78
2023/03/20 08:31:47;;;;;;;;;;;;;;;6.55;92.01;101850.91;4955690;28;1468;-78
2023/03/20 08:34:12;;;;;;;;;;;;;;;6.46;91.70;101853.91;4949134;28;1477;-78
2023/03/20 08:36:38;;;;;;;;;;;;;;;6.55;91.03;101853.47;4956662;28;1476;-78
2023/03/20 08:39:05;;;;;;;;;;;;;;;6.54;91.11;101851.81;4950193;28;1334;-78
2023/03/20 08:41:30;;;;;;;;;;;;;;;6.55;92.00;101848.31;4949203;28;1481;-78
2023/03/20 08:43:55;;;;;;;;;;;;;;;6.65;91.02;101857.25;4931462;28;1969;-78
2023/03/20 08:46:21;;;;;;;;;;;;;;;6.73;90.60;101846.59;4937731;28;1453;-78
2023/03/20 08:48:46;;;;;;;;;;;;;;;6.63;91.35;101851.34;4954082;28;1251;-78
2023/03/20 08:51:11;;;;;;;;;;;;;;;6.63;91.15;101843.63;4950731;28;1516;-78
2023/03/20 08:53:36;;;;;;;;;;;;;;;6.65;91.11;101849.53;4956353;28;1382;-78
2023/03/20 08:56:02;;;;;;;;;;;;;;;6.67;91.36;101847.72;4940711;28;1633;-77
2023/03/20 08:58:27;;;;;;;;;;;;;;;6.71;91.21;101844.09;4952490;28;1614;-77
2023/03/20 09:00:53;;;;;;;;;;;;;;;6.67;91.14;101841.75;4950865;28;4992;-78
2023/03/20 09:03:19;;;;;;;;;;;;;;;6.69;91.28;101845.91;4950051;28;1969;-78
2023/03/20 09:05:46;;;;;;;;;;;;;;;6.70;91.24;101842.41;4944522;28;1254;-78
2023/03/20 09:08:11;;;;;;;;;;;;;;;6.82;90.07;101836.63;4932630;28;1539;-78
2023/03/20 09:10:36;;;;;;;;;;;;;;;6.82;90.32;101846.94;4953793;28;1217;-78
2023/03/20 09:13:02;;;;;;;;;;;;;;;6.73;90.91;101844.84;4954779;28;2149;-78
2023/03/20 09:15:36;;;;;;;;;;;;;;;6.77;90.94;101846.38;4932756;29;1310;-78
2023/03/20 09:18:02;;;;;;;;;;;;;;;6.74;90.87;101854.25;4948876;28;1306;-78
2023/03/20 09:20:27;;;;;;;;;;;;;;;6.74;91.65;101854.25;4951467;28;1483;-78
2023/03/20 09:22:52;;;;;;;;;;;;;;;6.76;91.16;101857.56;4947325;28;1348;-78
2023/03/20 09:25:18;;;;;;;;;;;;;;;6.79;92.23;101862.59;4955374;28;1955;-78
2023/03/20 09:27:43;;;;;;;;;;;;;;;6.97;91.85;101862.59;4949815;28;1307;-78
2023/03/20 09:30:09;;;;;;;;;;;;;;;6.89;91.87;101863.81;4955575;28;1503;-78
2023/03/20 09:32:34;;;;;;;;;;;;;;;6.85;92.22;101867.44;4949726;28;1380;-78
2023/03/20 09:35:00;;;;;;;;;;;;;;;6.98;92.74;101859.09;4947888;28;1341;-78
2023/03/20 09:37:25;;;;;;;;;;;;;;;6.89;92.72;101863.81;4956090;28;1339;-78
2023/03/20 09:39:51;;;;;;;;;;;;;;;6.88;92.93;101869.88;4951156;28;1541;-78
2023/03/20 09:42:16;;;;;;;;;;;;;;;6.90;92.26;101874.97;4957841;28;1306;-78
2023/03/20 09:45:08;;;;;;;;;;;;;;;6.89;92.42;101865.56;4933785;28;1895;-78
2023/03/20 09:47:52;;;;;;;;;;;;;;;6.89;92.96;101874.13;4948195;28;1426;-78
2023/03/20 09:50:30;;;;;;;;;;;;;;;6.93;93.39;101878.19;4954882;28;1433;-78
2023/03/20 09:53:15;;;;;;;;;;;;;;;7.06;93.18;101869.88;4948626;28;1214;-78
2023/03/20 09:55:42;;;;;;;;;;;;;;;7.02;93.37;101869.19;4951354;28;1652;-78
2023/03/20 09:58:19;;;;;;;;;;;;;;;7.07;92.05;101868.97;4953478;28;1401;-78
2023/03/20 10:00:45;;;;;;;;;;;;;;;7.03;92.38;101864.84;4951623;28;4877;-78
2023/03/20 10:03:16;;;;;;;;;;;;;;;7.14;91.92;101868.56;4949338;28;1935;-78
2023/03/20 10:05:44;;;;;;;;;;;;;;;7.11;92.29;101867.88;4948625;28;1229;-78
2023/03/20 10:08:12;;;;;;;;;;;;;;;7.25;91.84;101864.63;4952166;28;1973;-78
2023/03/20 10:10:56;;;;;;;;;;;;;;;7.17;91.79;101868.44;4941102;28;1599;-79
2023/03/20 10:13:21;;;;;;;;;;;;;;;7.23;91.54;101861.28;4940400;28;1491;-79
2023/03/20 10:16:01;;;;;;;;;;;;;;;7.21;91.91;101853.59;4935736;28;1220;-78
2023/03/20 10:18:28;;;;;;;;;;;;;;;7.27;91.98;101852.47;4947323;28;1301;-78
2023/03/20 10:21:04;;;;;;;;;;;;;;;7.27;91.32;101855.88;4948420;28;1129;-79
2023/03/20 10:23:32;;;;;;;;;;;;;;;7.30;91.24;101842.81;4941360;28;1898;-79
2023/03/20 10:26:14;;;;;;;;;;;;;;;7.29;90.88;101848.91;4952464;28;1449;-78
2023/03/20 10:28:57;;;;;;;;;;;;;;;7.32;90.86;101846.16;4946284;28;1098;-78
2023/03/20 10:31:25;;;;;;;;;;;;;;;7.35;91.44;101840.84;4946761;28;1097;-78
2023/03/20 10:34:00;;;;;;;;;;;;;;;7.43;91.22;101843.84;4947826;28;1149;-78
2023/03/20 10:36:46;;;;;;;;;;;;;;;7.41;90.78;101845.69;4934394;28;1228;-78
2023/03/20 10:39:17;;;;;;;;;;;;;;;7.36;90.59;101842.50;4948638;28;1497;-78
2023/03/20 10:41:46;;;;;;;;;;;;;;;7.33;91.21;101842.66;4934421;29;1362;-78
2023/03/20 10:44:28;;;;;;;;;;;;;;;7.36;90.87;101842.50;4948190;28;1973;-77
2023/03/20 10:46:55;;;;;;;;;;;;;;;7.34;91.10;101839.19;4954760;28;1091;-78
2023/03/20 10:52:20;;;;;;;;;;;;;;;7.35;91.67;101845.19;5480709;23;1616;-78
2023/03/20 10:54:52;;;;;;;;;;;;;;;7.35;92.31;101838.25;4959799;28;1516;-78
2023/03/20 10:57:21;;;;;;;;;;;;;;;7.39;92.05;101837.16;4968055;28;1225;-78
2023/03/20 10:59:49;;;;;;;;;;;;;;;7.51;91.94;101840.03;4959661;28;1393;-78
2023/03/20 11:02:15;;;;;;;;;;;;;;;7.53;90.63;101827.88;4965113;28;5298;-78
2023/03/20 11:04:40;;;;;;;;;;;;;;;7.57;90.38;101834.53;4957571;28;1894;-78
2023/03/20 11:07:17;;;;;;;;;;;;;;;7.48;90.61;101835.03;4957477;28;1219;-78
2023/03/20 11:09:42;;;;;;;;;;;;;;;7.48;91.43;101835.03;4957550;28;1362;-78
2023/03/20 11:12:16;;;;;;;;;;;;;;;7.77;90.56;101829.16;4943645;28;2159;-78
2023/03/20 11:14:42;;;;;;;;;;;;;;;7.55;91.28;101828.63;4963863;28;1296;-78
2023/03/20 11:17:09;;;;;;;;;;;;;;;7.60;90.95;101818.91;4941785;28;1321;-78
2023/03/20 11:19:36;;;;;;;;;;;;;;;7.55;91.64;101826.06;4942311;28;1388;-78
2023/03/20 11:22:06;;;;;;;;;;;;;;;7.64;90.99;101825.56;4962690;28;1638;-78
2023/03/20 11:24:36;;;;;;;;;;;;;;;7.58;91.15;101820.75;4964706;28;1894;-78
2023/03/20 11:27:06;;;;;;;;;;;;;;;7.58;91.38;101826.72;4942256;28;1591;-78
2023/03/20 11:29:34;;;;;;;;;;;;;;;7.61;91.03;101821.38;4940260;28;1344;-78
2023/03/20 11:32:25;;;;;;;;;;;;;;;7.59;91.12;101818.06;4963918;28;1241;-78
2023/03/20 11:34:51;;;;;;;;;;;;;;;7.61;90.72;101820.56;4956239;28;1605;-78
2023/03/20 11:37:32;;;;;;;;;;;;;;;7.63;91.39;101813.59;4962196;28;1439;-78
2023/03/20 11:40:13;;;;;;;;;;;;;;;7.65;90.98;101812.56;4950932;28;1511;-78
2023/03/20 11:42:50;;;;;;;;;;;;;;;7.67;91.11;101810.72;4961929;28;1267;-78
2023/03/20 11:45:16;;;;;;;;;;;;;;;7.80;90.64;101810.06;4942310;28;1891;-78
2023/03/20 11:47:41;;;;;;;;;;;;;;;7.75;90.29;101804.34;4963713;28;1301;-78
2023/03/20 11:50:33;;;;;;;;;;;;;;;7.78;90.16;101797.25;4955363;28;1630;-78
2023/03/20 11:53:03;;;;;;;;;;;;;;;7.80;89.93;101805.75;4958955;28;1230;-78
2023/03/20 11:55:30;;;;;;;;;;;;;;;7.86;89.74;101795.09;4944361;28;1523;-78
2023/03/20 11:57:58;;;;;;;;;;;;;;;7.86;89.59;101800.25;4958420;28;1372;-78
2023/03/20 12:00:44;;;;;;;;;;;;;;;7.89;89.55;101794.91;4958848;28;5040;-78
2023/03/20 12:03:28;;;;;;;;;;;;;;;7.88;89.83;101795.84;4961817;28;1276;-78
2023/03/20 12:05:58;;;;;;;;;;;;;;;7.90;90.26;101799.16;4962760;28;1253;-78
2023/03/20 12:08:25;;;;;;;;;;;;;;;7.96;89.94;101801.41;4959496;28;1622;-78
2023/03/20 12:10:54;;;;;;;;;;;;;;;8.03;90.32;101791.59;4957963;28;1477;-78
2023/03/20 12:13:32;;;;;;;;;;;;;;;8.09;89.89;101790.41;4963383;28;1486;-78
2023/03/20 12:16:17;;;;;;;;;;;;;;;8.11;89.82;101786.00;4962879;28;1361;-78
2023/03/20 12:18:47;;;;;;;;;;;;;;;8.09;89.94;101785.25;4951246;28;1089;-78
2023/03/20 12:21:27;;;;;;;;;;;;;;;8.11;89.99;101784.22;4953937;28;1024;-78
2023/03/20 12:24:11;;;;;;;;;;;;;;;8.15;90.55;101784.91;4957245;28;1987;-78
2023/03/20 12:26:50;;;;;;;;;;;;;;;8.20;90.54;101780.28;4952789;28;1074;-78
2023/03/20 12:29:16;;;;;;;;;;;;;;;8.36;89.15;101783.69;4940366;28;1235;-78
2023/03/20 12:31:45;;;;;;;;;;;;;;;8.29;89.41;101779.78;4958809;28;1007;-79
2023/03/20 12:34:15;;;;;;;;;;;;;;;8.30;89.59;101784.03;4943156;28;1364;-78
2023/03/20 12:36:42;;;;;;;;;;;;;;;8.30;89.86;101784.03;4957626;28;1206;-78
2023/03/20 12:39:13;;;;;;;;;;;;;;;8.33;88.73;101776.09;4962020;28;1382;-78
2023/03/20 12:41:38;;;;;;;;;;;;;;;8.30;89.06;101778.84;4948955;28;1400;-78
2023/03/20 12:44:20;;;;;;;;;;;;;;;8.36;88.37;101773.38;4956506;28;1923;-78
2023/03/20 12:47:04;;;;;;;;;;;;;;;8.36;88.85;101772.53;4958171;28;1286;-78
2023/03/20 12:49:40;;;;;;;;;;;;;;;8.43;88.13;101772.13;4948074;28;1250;-78
2023/03/20 12:52:33;;;;;;;;;;;;;;;8.41;88.11;101766.19;4955063;28;1635;-77
2023/03/20 12:55:04;;;;;;;;;;;;;;;8.39;88.77;101762.88;4961958;28;1312;-77
2023/03/20 12:57:32;;;;;;;;;;;;;;;8.50;88.38;101763.09;4958413;28;2392;-78
2023/03/20 13:00:09;;;;;;;;;;;;;;;8.42;88.27;101748.91;4956546;28;4944;-78
2023/03/20 13:02:49;;;;;;;;;;;;;;;8.49;87.86;101751.09;4955388;28;1281;-77
2023/03/20 13:05:35;;;;;;;;;;;;;;;8.45;87.97;101736.66;4960706;28;1963;-77
2023/03/20 13:08:19;;;;;;;;;;;;;;;8.43;87.57;101738.50;4947346;28;1204;-77
2023/03/20 13:11:12;;;;;;;;;;;;;;;8.42;88.21;101736.81;4961285;28;1698;-78